Weather observations for the past three days for
Hondo, Hondo Municipal Airport
Metric (Imperial)
Date Time (cdt) Wind (kph) Vis. (km) Weather Sky Cond. Temperature (ºC) Relative Humidity Wind Chill (°C) Heat Index (°C) Pressure Precipitation (cm)
Air Dwpt 6 hour altimeter (cm) sea level (mb) 1 hr 3 hr 6 hr
Max. Min.
10 13:51 E 26 G 37 16.09 Partly Cloudy SCT042 31.7 21.7 55% 35 75.97 1011.3
10 12:51 SE 22 G 33 16.09 A Few Clouds FEW036 30.6 21.1 31.1 18.9 57% 33 76 1011.7
10 11:51 SE 17 16.09 Fair CLR 29.4 21.7 63% 32 76 1011.4
10 10:51 S 9 16.09 Fair CLR 27.2 21.1 69% 29 76 1011.5
10 09:51 Calm 0.00 NULL NULL 25 20.6 77% 26 75.97 1011.2
10 08:51 SE 6 16.09 NULL NULL 22.8 19.4 81% 75.97 1011.1
10 07:51 Calm 16.09 Fair CLR 20.6 18.9 90% 75.92 1010.7
10 06:51 E 7 16.09 Fair CLR 19.4 17.8 23.9 18.3 91% 75.9 1010.4
10 05:51 N 6 16.09 Fair CLR 18.3 17.8 97% 75.9 1010.3
10 04:51 SE 9 16.09 Fair CLR 20.6 18.9 90% 75.87 1009.7
10 03:51 E 7 16.09 Fair CLR 21.1 18.9 87% 75.84 1009.5
10 02:51 E 7 16.09 Fair CLR 22.2 18.9 82% 75.84 1009.6
10 01:51 S 9 16.09 Fair CLR 22.8 19.4 81% 75.84 1009.6
10 00:51 S 13 16.09 Fair CLR 23.9 19.4 31.7 23.9 76% 24 75.84 1009.4
09 23:51 SE 22 16.09 Fair CLR 26.1 18.9 65% 27 75.82 1009.1
09 22:51 SE 13 16.09 Fair CLR 26.1 19.4 67% 27 75.79 1008.8
09 21:51 SE 15 16.09 Fair CLR 26.7 19.4 64% 28 75.74 1008.3
09 20:51 SE 11 16.09 Fair CLR 26.7 20 67% 28 75.67 1007.3
09 19:51 S 13 16.09 Fair CLR 29.4 20 57% 31 75.62 1006.6
09 18:51 SE 7 16.09 Fair CLR 31.7 18.9 32.2 28.3 47% 33 75.62 1006.5
09 17:51 Vrbl 9 16.09 Fair CLR 32.2 19.4 47% 34 75.59 1006.3
09 16:51 Vrbl 6 16.09 Fair CLR 31.1 19.4 50% 33 75.62 1006.5
09 15:51 Vrbl 11 16.09 A Few Clouds FEW045 32.2 20.6 50% 35 75.67 1007.3
09 14:51 SW 9 16.09 A Few Clouds FEW041 31.1 20.6 54% 34 75.77 1008.4
09 13:51 SW 9 16.09 A Few Clouds FEW049 30 20.6 57% 32 75.82 1009.0
09 12:51 S 9 16.09 Mostly Cloudy SCT023 BKN033 28.9 22.2 28.9 22.2 67% 32 75.87 1009.8
09 11:51 SW 20 16.09 Mostly Cloudy SCT018 SCT027 BKN048 27.2 22.2 74% 30 75.9 1010.2
09 10:51 S 13 16.09 Mostly Cloudy SCT011 BKN020 BKN048 25.6 22.2 82% 27 75.92 1010.7
09 09:51 SE 7 12.87 Overcast BKN007 BKN012 OVC018 23.9 22.2 90% 23 75.95 1011.0
09 08:51 NE 6 9.66 Fog/Mist BKN008 BKN011 OVC025 23.3 22.2 94% 75.9 1010.4
09 07:51 E 11 1.61 Fog/Mist OVC003 22.2 22.2 100% 75.9 1010.6
09 06:51 E 11 6.44 Fog/Mist OVC004 22.8 21.7 22.8 21.1 94% 75.82 1009.2
09 05:51 NE 9 4.83 Fog/Mist OVC003 22.2 21.7 97% 75.79 1009.0
09 04:51 NE 9 6.44 Fog/Mist OVC003 22.2 21.7 97% 75.77 1008.6
09 03:51 NE 7 9.66 Fog/Mist OVC004 22.2 21.1 94% 75.69 1007.7
09 02:51 E 6 12.87 Overcast OVC005 22.2 21.1 94% 75.77 1008.7
09 01:51 E 6 14.48 Overcast OVC007 21.7 20.6 94% 75.77 1008.7
09 00:51 N 7 12.87 Partly Cloudy SCT009 21.1 20 25.6 20.6 93% 75.82 1009.3
08 23:51 Calm 16.09 Mostly Cloudy FEW024 SCT037 BKN043 21.7 20 90% 75.84 1010.0
08 22:51 E 9 16.09 Mostly Cloudy SCT025 BKN040 BKN047 22.2 19.4 84% 75.79 1009.2
08 21:51 NE 15 16.09 Partly Cloudy SCT033 22.2 19.4 84% 75.69 1007.9
08 20:51 NE 9 16.09 Mostly Cloudy BKN035 22.2 19.4 84% 75.67 1007.7
08 19:51 E 9 16.09 Mostly Cloudy FEW025 BKN035 24.4 20 77% 25 75.64 1007.0
08 18:51 E 13 16.09 A Few Clouds FEW041 25.6 20 26.1 22.2 71% 27 75.64 1007.2
08 17:51 NE 6 16.09 Mostly Cloudy BKN027 BKN043 25.6 20 71% 27 75.67 1007.3
08 16:51 SE 9 16.09 Overcast BKN022 BKN029 OVC045 25.6 19.4 69% 27 75.69 1007.7
08 15:51 SE 9 16.09 Overcast OVC020 24.4 19.4 74% 25 75.74 1008.5
08 14:51 SE 7 16.09 Overcast OVC017 23.9 19.4 76% 24 75.79 1009.0
08 13:51 SE 13 16.09 Overcast OVC016 23.3 18.9 76% 75.82 1009.4
08 12:51 E 6 16.09 Overcast OVC013 22.2 18.3 22.8 16.7 79% 75.87 1010.3
08 11:51 NE 7 16.09 NULL NULL 20.6 17.8 84% 75.95 1011.3
08 10:51 Calm 0.00 NULL NULL 18.9 16.7 87% 75.97 1011.8
08 09:51 N 11 16.09 NULL NULL 17.8 16.1 90% 76.05 1012.8
08 08:51 N 7 14.48 NULL NULL 17.2 16.1 93% 76.05 1012.7
08 07:51 NE 7 14.48 Overcast OVC013 17.2 15.6 90% 76 1012.1
08 06:51 NE 7 16.09 NULL NULL 16.7 15 18.9 16.7 90% 76.05 1012.7
08 05:51 E 15 16.09 Overcast OVC015 17.2 15 87% 76.02 1012.4
08 04:51 NE 11 16.09 Overcast OVC018 17.8 14.4 81% 76.02 1012.4
08 03:51 NE 9 16.09 Light Rain OVC019 18.3 13.9 76% 76.02 1012.4
08 02:51 E 7 16.09 Overcast OVC022 18.9 12.8 68% 76.05 1012.8
08 01:51 E 9 16.09 Overcast OVC023 18.9 12.8 68% 76.1 1013.4
08 00:51 N 7 16.09 Overcast OVC024 18.9 12.8 20.6 18.9 68% 76.12 1013.6
07 23:51 NW 6 16.09 Overcast OVC026 18.9 13.3 70% 76.2 1014.8
07 22:51 E 9 16.09 Overcast OVC023 19.4 12.8 66% 76.05 1012.7
07 21:51 NE 13 16.09 Overcast OVC025 20 13.3 65% 76.1 1013.5
07 20:51 NE 6 16.09 Overcast OVC025 20 12.8 63% 76.12 1013.7
07 19:51 NE 9 16.09 Mostly Cloudy BKN026 20.6 11.7 57% 76.02 1012.6
07 18:51 E 28 16.09 Fair CLR 20.6 12.8 21.7 18.9 61% 75.92 1011.1
07 17:51 E 17 16.09 A Few Clouds FEW070 21.1 13.9 64% 76.1 1013.3
07 16:51 NE 17 16.09 Overcast OVC028 20.6 13.3 63% 76.15 1014.2
07 15:51 NE 15 16.09 Overcast BKN027 OVC047 20 13.9 68% 76.17 1014.3
07 14:51 E 24 16.09 NULL NULL 20 13.3 65% 76.15 1013.9
Date Time (cdt) Wind (kph) Vis. (km) Weather Sky Cond. Air Dwpt Max. Min. Relative Humidity Wind Chill (°C) Heat Index (°C) altimeter (cm) sea level (mb) 1 hr 3 hr 6 hr
6 hour
Temperature (ºC) Pressure Precipitation (cm)